sensor_id;sensor_type;location;lat;lon;timestamp;pressure;altitude;pressure_sealevel;temperature
12234;BMP180;6179;51.748;8.728;2023-09-07T00:02:37;230388.00;;;222.90
12234;BMP180;6179;51.748;8.728;2023-09-07T00:08:39;230388.00;;;222.90
12234;BMP180;6179;51.748;8.728;2023-09-07T00:14:40;230388.00;;;222.90
12234;BMP180;6179;51.748;8.728;2023-09-07T00:20:41;230388.00;;;222.90
12234;BMP180;6179;51.748;8.728;2023-09-07T00:26:41;230388.00;;;222.90
12234;BMP180;6179;51.748;8.728;2023-09-07T00:32:42;230388.00;;;222.90
12234;BMP180;6179;51.748;8.728;2023-09-07T00:38:43;230388.00;;;222.90
12234;BMP180;6179;51.748;8.728;2023-09-07T00:44:44;230388.00;;;222.90
12234;BMP180;6179;51.748;8.728;2023-09-07T00:50:45;230388.00;;;222.90
12234;BMP180;6179;51.748;8.728;2023-09-07T00:56:46;230388.00;;;222.90
12234;BMP180;6179;51.748;8.728;2023-09-07T01:02:47;230388.00;;;222.90
12234;BMP180;6179;51.748;8.728;2023-09-07T01:08:54;230388.00;;;222.90
12234;BMP180;6179;51.748;8.728;2023-09-07T01:14:57;230388.00;;;222.90
12234;BMP180;6179;51.748;8.728;2023-09-07T01:21:01;230388.00;;;222.90
12234;BMP180;6179;51.748;8.728;2023-09-07T01:27:05;230388.00;;;222.90
12234;BMP180;6179;51.748;8.728;2023-09-07T01:33:06;230388.00;;;222.90
12234;BMP180;6179;51.748;8.728;2023-09-07T01:39:08;230388.00;;;222.90
12234;BMP180;6179;51.748;8.728;2023-09-07T01:45:09;230388.00;;;222.90
12234;BMP180;6179;51.748;8.728;2023-09-07T01:51:10;230388.00;;;222.90
12234;BMP180;6179;51.748;8.728;2023-09-07T01:57:11;230388.00;;;222.90
12234;BMP180;6179;51.748;8.728;2023-09-07T02:03:11;230388.00;;;222.90
12234;BMP180;6179;51.748;8.728;2023-09-07T02:09:12;230388.00;;;222.90
12234;BMP180;6179;51.748;8.728;2023-09-07T02:15:13;230388.00;;;222.90
12234;BMP180;6179;51.748;8.728;2023-09-07T02:21:14;230388.00;;;222.90
12234;BMP180;6179;51.748;8.728;2023-09-07T02:27:14;230388.00;;;222.90
12234;BMP180;6179;51.748;8.728;2023-09-07T02:33:15;230388.00;;;222.90
12234;BMP180;6179;51.748;8.728;2023-09-07T02:39:16;230388.00;;;222.90
12234;BMP180;6179;51.748;8.728;2023-09-07T02:45:17;230388.00;;;222.90
12234;BMP180;6179;51.748;8.728;2023-09-07T02:51:18;230388.00;;;222.90
12234;BMP180;6179;51.748;8.728;2023-09-07T02:57:19;230388.00;;;222.90
12234;BMP180;6179;51.748;8.728;2023-09-07T03:03:20;230388.00;;;222.90
12234;BMP180;6179;51.748;8.728;2023-09-07T03:09:21;230388.00;;;222.90
12234;BMP180;6179;51.748;8.728;2023-09-07T03:15:22;230388.00;;;222.90
12234;BMP180;6179;51.748;8.728;2023-09-07T03:21:22;230388.00;;;222.90
12234;BMP180;6179;51.748;8.728;2023-09-07T03:27:29;230388.00;;;222.90
12234;BMP180;6179;51.748;8.728;2023-09-07T03:33:30;230388.00;;;222.90
12234;BMP180;6179;51.748;8.728;2023-09-07T03:39:31;230388.00;;;222.90
12234;BMP180;6179;51.748;8.728;2023-09-07T03:45:31;230388.00;;;222.90
12234;BMP180;6179;51.748;8.728;2023-09-07T03:51:32;230388.00;;;222.90
12234;BMP180;6179;51.748;8.728;2023-09-07T03:57:33;230388.00;;;222.90
12234;BMP180;6179;51.748;8.728;2023-09-07T04:03:34;230388.00;;;222.90
12234;BMP180;6179;51.748;8.728;2023-09-07T04:09:35;230388.00;;;222.90
12234;BMP180;6179;51.748;8.728;2023-09-07T04:15:45;230388.00;;;222.90
12234;BMP180;6179;51.748;8.728;2023-09-07T04:21:46;230388.00;;;222.90
12234;BMP180;6179;51.748;8.728;2023-09-07T04:27:47;230388.00;;;222.90
12234;BMP180;6179;51.748;8.728;2023-09-07T04:33:48;230388.00;;;222.90
12234;BMP180;6179;51.748;8.728;2023-09-07T04:39:53;230388.00;;;222.90
12234;BMP180;6179;51.748;8.728;2023-09-07T04:45:54;230388.00;;;222.90
12234;BMP180;6179;51.748;8.728;2023-09-07T04:51:54;230388.00;;;222.90
12234;BMP180;6179;51.748;8.728;2023-09-07T04:57:55;230388.00;;;222.90
12234;BMP180;6179;51.748;8.728;2023-09-07T05:03:56;230388.00;;;222.90
12234;BMP180;6179;51.748;8.728;2023-09-07T05:09:57;230388.00;;;222.90
12234;BMP180;6179;51.748;8.728;2023-09-07T05:15:59;230388.00;;;222.90
12234;BMP180;6179;51.748;8.728;2023-09-07T05:22:01;230388.00;;;222.90
12234;BMP180;6179;51.748;8.728;2023-09-07T05:28:04;230388.00;;;222.90
12234;BMP180;6179;51.748;8.728;2023-09-07T05:34:04;230388.00;;;222.90
12234;BMP180;6179;51.748;8.728;2023-09-07T05:40:06;230388.00;;;222.90
12234;BMP180;6179;51.748;8.728;2023-09-07T05:46:06;230388.00;;;222.90
12234;BMP180;6179;51.748;8.728;2023-09-07T05:52:07;230388.00;;;222.90
12234;BMP180;6179;51.748;8.728;2023-09-07T05:58:09;230388.00;;;222.90
12234;BMP180;6179;51.748;8.728;2023-09-07T06:04:10;230388.00;;;222.90
12234;BMP180;6179;51.748;8.728;2023-09-07T06:10:10;230388.00;;;222.90
12234;BMP180;6179;51.748;8.728;2023-09-07T06:16:11;230388.00;;;222.90
12234;BMP180;6179;51.748;8.728;2023-09-07T06:22:12;230388.00;;;222.90
12234;BMP180;6179;51.748;8.728;2023-09-07T06:28:13;230388.00;;;222.90
12234;BMP180;6179;51.748;8.728;2023-09-07T06:34:13;230388.00;;;222.90
12234;BMP180;6179;51.748;8.728;2023-09-07T06:40:14;230388.00;;;222.90
12234;BMP180;6179;51.748;8.728;2023-09-07T06:46:16;230388.00;;;222.90
12234;BMP180;6179;51.748;8.728;2023-09-07T06:52:16;230388.00;;;222.90
12234;BMP180;6179;51.748;8.728;2023-09-07T06:58:17;230388.00;;;222.90
12234;BMP180;6179;51.748;8.728;2023-09-07T07:04:18;230388.00;;;222.90
12234;BMP180;6179;51.748;8.728;2023-09-07T07:10:19;230388.00;;;222.90
12234;BMP180;6179;51.748;8.728;2023-09-07T07:16:20;230388.00;;;222.90
12234;BMP180;6179;51.748;8.728;2023-09-07T07:22:20;230388.00;;;222.90
12234;BMP180;6179;51.748;8.728;2023-09-07T07:28:21;230388.00;;;222.90
12234;BMP180;6179;51.748;8.728;2023-09-07T07:34:22;230388.00;;;222.90
12234;BMP180;6179;51.748;8.728;2023-09-07T07:40:23;230388.00;;;222.90
12234;BMP180;6179;51.748;8.728;2023-09-07T07:46:24;230388.00;;;222.90
12234;BMP180;6179;51.748;8.728;2023-09-07T07:52:25;230388.00;;;222.90
12234;BMP180;6179;51.748;8.728;2023-09-07T07:58:25;230388.00;;;222.90
12234;BMP180;6179;51.748;8.728;2023-09-07T08:04:26;230388.00;;;222.90
12234;BMP180;6179;51.748;8.728;2023-09-07T08:10:27;230388.00;;;222.90
12234;BMP180;6179;51.748;8.728;2023-09-07T08:16:28;230388.00;;;222.90
12234;BMP180;6179;51.748;8.728;2023-09-07T08:22:29;230388.00;;;222.90
12234;BMP180;6179;51.748;8.728;2023-09-07T08:28:30;230388.00;;;222.90
12234;BMP180;6179;51.748;8.728;2023-09-07T08:34:31;230388.00;;;222.90
12234;BMP180;6179;51.748;8.728;2023-09-07T08:40:32;230388.00;;;222.90
12234;BMP180;6179;51.748;8.728;2023-09-07T08:46:37;230388.00;;;222.90
12234;BMP180;6179;51.748;8.728;2023-09-07T08:52:38;230388.00;;;222.90
12234;BMP180;6179;51.748;8.728;2023-09-07T08:58:39;230388.00;;;222.90
12234;BMP180;6179;51.748;8.728;2023-09-07T09:04:40;230388.00;;;222.90
12234;BMP180;6179;51.748;8.728;2023-09-07T09:10:41;230388.00;;;222.90
12234;BMP180;6179;51.748;8.728;2023-09-07T09:16:49;230388.00;;;222.90
12234;BMP180;6179;51.748;8.728;2023-09-07T09:22:53;230388.00;;;222.90
12234;BMP180;6179;51.748;8.728;2023-09-07T09:28:56;230388.00;;;222.90
12234;BMP180;6179;51.748;8.728;2023-09-07T09:34:57;230388.00;;;222.90
12234;BMP180;6179;51.748;8.728;2023-09-07T09:40:59;230388.00;;;222.90
12234;BMP180;6179;51.748;8.728;2023-09-07T09:47:00;230388.00;;;222.90
12234;BMP180;6179;51.748;8.728;2023-09-07T09:53:05;230388.00;;;222.90
12234;BMP180;6179;51.748;8.728;2023-09-07T09:59:07;230388.00;;;222.90
12234;BMP180;6179;51.748;8.728;2023-09-07T10:05:08;230388.00;;;222.90
12234;BMP180;6179;51.748;8.728;2023-09-07T10:11:10;230388.00;;;222.90
12234;BMP180;6179;51.748;8.728;2023-09-07T10:17:22;230388.00;;;222.90
12234;BMP180;6179;51.748;8.728;2023-09-07T10:23:36;230388.00;;;222.90
12234;BMP180;6179;51.748;8.728;2023-09-07T10:29:42;230388.00;;;222.90
12234;BMP180;6179;51.748;8.728;2023-09-07T10:35:44;230388.00;;;222.90
12234;BMP180;6179;51.748;8.728;2023-09-07T10:41:45;230388.00;;;222.90
12234;BMP180;6179;51.748;8.728;2023-09-07T10:47:46;230388.00;;;222.90
12234;BMP180;6179;51.748;8.728;2023-09-07T10:53:48;230388.00;;;222.90
12234;BMP180;6179;51.748;8.728;2023-09-07T10:59:49;230388.00;;;222.90
12234;BMP180;6179;51.748;8.728;2023-09-07T11:05:51;230388.00;;;222.90
12234;BMP180;6179;51.748;8.728;2023-09-07T11:11:54;230388.00;;;222.90
12234;BMP180;6179;51.748;8.728;2023-09-07T11:17:55;230388.00;;;222.90
12234;BMP180;6179;51.748;8.728;2023-09-07T11:23:57;230388.00;;;222.90
12234;BMP180;6179;51.748;8.728;2023-09-07T11:29:58;230388.00;;;222.90
12234;BMP180;6179;51.748;8.728;2023-09-07T11:36:00;230388.00;;;222.90
12234;BMP180;6179;51.748;8.728;2023-09-07T11:42:01;230388.00;;;222.90
12234;BMP180;6179;51.748;8.728;2023-09-07T11:48:02;230388.00;;;222.90
12234;BMP180;6179;51.748;8.728;2023-09-07T11:54:04;230388.00;;;222.90
12234;BMP180;6179;51.748;8.728;2023-09-07T12:00:06;230388.00;;;222.90
12234;BMP180;6179;51.748;8.728;2023-09-07T12:06:11;230388.00;;;222.90
12234;BMP180;6179;51.748;8.728;2023-09-07T12:12:12;230388.00;;;222.90
12234;BMP180;6179;51.748;8.728;2023-09-07T12:18:13;230388.00;;;222.90
12234;BMP180;6179;51.748;8.728;2023-09-07T12:24:14;230388.00;;;222.90
12234;BMP180;6179;51.748;8.728;2023-09-07T12:30:15;230388.00;;;222.90
12234;BMP180;6179;51.748;8.728;2023-09-07T12:36:19;230388.00;;;222.90
12234;BMP180;6179;51.748;8.728;2023-09-07T12:42:22;230388.00;;;222.90
12234;BMP180;6179;51.748;8.728;2023-09-07T12:48:22;230388.00;;;222.90
12234;BMP180;6179;51.748;8.728;2023-09-07T12:54:23;230388.00;;;222.90
12234;BMP180;6179;51.748;8.728;2023-09-07T13:00:24;230388.00;;;222.90
12234;BMP180;6179;51.748;8.728;2023-09-07T13:06:25;108424.00;;;222.90
12234;BMP180;6179;51.748;8.728;2023-09-07T13:12:26;108428.00;;;222.90
12234;BMP180;6179;51.748;8.728;2023-09-07T13:18:26;108423.00;;;222.90
12234;BMP180;6179;51.748;8.728;2023-09-07T13:24:27;108426.00;;;222.90
12234;BMP180;6179;51.748;8.728;2023-09-07T13:30:28;108427.00;;;222.90
12234;BMP180;6179;51.748;8.728;2023-09-07T13:36:28;108427.00;;;222.90
12234;BMP180;6179;51.748;8.728;2023-09-07T13:42:29;230388.00;;;222.90
12234;BMP180;6179;51.748;8.728;2023-09-07T13:48:30;230388.00;;;222.90
12234;BMP180;6179;51.748;8.728;2023-09-07T13:54:33;230388.00;;;222.90
12234;BMP180;6179;51.748;8.728;2023-09-07T14:00:33;230388.00;;;222.90
12234;BMP180;6179;51.748;8.728;2023-09-07T14:06:34;230388.00;;;222.90
12234;BMP180;6179;51.748;8.728;2023-09-07T14:12:35;230388.00;;;222.90
12234;BMP180;6179;51.748;8.728;2023-09-07T14:18:36;108427.00;;;222.90
12234;BMP180;6179;51.748;8.728;2023-09-07T14:24:37;108428.00;;;222.90
12234;BMP180;6179;51.748;8.728;2023-09-07T14:30:39;230388.00;;;222.90
12234;BMP180;6179;51.748;8.728;2023-09-07T14:36:39;108425.00;;;222.90
12234;BMP180;6179;51.748;8.728;2023-09-07T14:42:40;108431.00;;;222.90
12234;BMP180;6179;51.748;8.728;2023-09-07T14:48:41;108424.00;;;222.90
12234;BMP180;6179;51.748;8.728;2023-09-07T14:54:43;108426.00;;;222.90
12234;BMP180;6179;51.748;8.728;2023-09-07T15:00:44;108424.00;;;222.90
12234;BMP180;6179;51.748;8.728;2023-09-07T15:06:44;108423.00;;;222.90
12234;BMP180;6179;51.748;8.728;2023-09-07T15:12:45;108424.00;;;222.90
12234;BMP180;6179;51.748;8.728;2023-09-07T15:18:46;108427.00;;;222.90
12234;BMP180;6179;51.748;8.728;2023-09-07T15:24:47;108429.00;;;222.90
12234;BMP180;6179;51.748;8.728;2023-09-07T15:30:48;108423.00;;;222.90
12234;BMP180;6179;51.748;8.728;2023-09-07T15:36:48;108426.00;;;222.90
12234;BMP180;6179;51.748;8.728;2023-09-07T15:42:49;108421.00;;;222.90
12234;BMP180;6179;51.748;8.728;2023-09-07T15:48:52;108423.00;;;222.90
12234;BMP180;6179;51.748;8.728;2023-09-07T15:54:53;108429.00;;;222.90
12234;BMP180;6179;51.748;8.728;2023-09-07T16:00:54;108429.00;;;222.90
12234;BMP180;6179;51.748;8.728;2023-09-07T16:06:55;108422.00;;;222.90
12234;BMP180;6179;51.748;8.728;2023-09-07T16:12:56;108419.00;;;222.90
12234;BMP180;6179;51.748;8.728;2023-09-07T16:18:56;108423.00;;;222.90
12234;BMP180;6179;51.748;8.728;2023-09-07T16:24:57;108423.00;;;222.90
12234;BMP180;6179;51.748;8.728;2023-09-07T16:30:59;108427.00;;;222.90
12234;BMP180;6179;51.748;8.728;2023-09-07T16:36:59;108420.00;;;222.90
12234;BMP180;6179;51.748;8.728;2023-09-07T16:43:00;108424.00;;;222.90
12234;BMP180;6179;51.748;8.728;2023-09-07T16:49:01;108421.00;;;222.90
12234;BMP180;6179;51.748;8.728;2023-09-07T16:55:02;108422.00;;;222.90
12234;BMP180;6179;51.748;8.728;2023-09-07T17:01:04;108426.00;;;222.90
12234;BMP180;6179;51.748;8.728;2023-09-07T17:07:05;108423.00;;;222.90
12234;BMP180;6179;51.748;8.728;2023-09-07T17:13:06;108425.00;;;222.90
12234;BMP180;6179;51.748;8.728;2023-09-07T17:19:07;108422.00;;;222.90
12234;BMP180;6179;51.748;8.728;2023-09-07T17:25:09;108422.00;;;222.90
12234;BMP180;6179;51.748;8.728;2023-09-07T17:31:16;108423.00;;;222.90
12234;BMP180;6179;51.748;8.728;2023-09-07T17:37:17;108423.00;;;222.90
12234;BMP180;6179;51.748;8.728;2023-09-07T17:43:18;108423.00;;;222.90
12234;BMP180;6179;51.748;8.728;2023-09-07T17:49:19;108420.00;;;222.90
12234;BMP180;6179;51.748;8.728;2023-09-07T17:55:19;108427.00;;;222.90
12234;BMP180;6179;51.748;8.728;2023-09-07T18:01:20;108426.00;;;222.90
12234;BMP180;6179;51.748;8.728;2023-09-07T18:07:21;108425.00;;;222.90
12234;BMP180;6179;51.748;8.728;2023-09-07T18:13:22;108424.00;;;222.90
12234;BMP180;6179;51.748;8.728;2023-09-07T18:19:23;108424.00;;;222.90
12234;BMP180;6179;51.748;8.728;2023-09-07T18:25:23;230388.00;;;222.90
12234;BMP180;6179;51.748;8.728;2023-09-07T18:31:24;230388.00;;;222.90
12234;BMP180;6179;51.748;8.728;2023-09-07T18:37:25;230388.00;;;222.90
12234;BMP180;6179;51.748;8.728;2023-09-07T18:43:30;230388.00;;;222.90
12234;BMP180;6179;51.748;8.728;2023-09-07T18:49:31;230388.00;;;222.90
12234;BMP180;6179;51.748;8.728;2023-09-07T18:55:34;230388.00;;;222.90
12234;BMP180;6179;51.748;8.728;2023-09-07T19:01:38;230388.00;;;222.90
12234;BMP180;6179;51.748;8.728;2023-09-07T19:07:39;230388.00;;;222.90
12234;BMP180;6179;51.748;8.728;2023-09-07T19:13:40;230388.00;;;222.90
12234;BMP180;6179;51.748;8.728;2023-09-07T19:19:41;230388.00;;;222.90
12234;BMP180;6179;51.748;8.728;2023-09-07T19:25:42;230388.00;;;222.90
12234;BMP180;6179;51.748;8.728;2023-09-07T19:31:42;230388.00;;;222.90
12234;BMP180;6179;51.748;8.728;2023-09-07T19:37:43;230388.00;;;222.90
12234;BMP180;6179;51.748;8.728;2023-09-07T19:43:45;230388.00;;;222.90
12234;BMP180;6179;51.748;8.728;2023-09-07T19:49:45;230388.00;;;222.90
12234;BMP180;6179;51.748;8.728;2023-09-07T19:55:46;230388.00;;;222.90
12234;BMP180;6179;51.748;8.728;2023-09-07T20:01:56;230388.00;;;222.90
12234;BMP180;6179;51.748;8.728;2023-09-07T20:07:57;230388.00;;;222.90
12234;BMP180;6179;51.748;8.728;2023-09-07T20:13:58;230388.00;;;222.90
12234;BMP180;6179;51.748;8.728;2023-09-07T20:19:59;230388.00;;;222.90
12234;BMP180;6179;51.748;8.728;2023-09-07T20:26:01;230388.00;;;222.90
12234;BMP180;6179;51.748;8.728;2023-09-07T20:32:02;230388.00;;;222.90
12234;BMP180;6179;51.748;8.728;2023-09-07T20:38:03;230388.00;;;222.90
12234;BMP180;6179;51.748;8.728;2023-09-07T20:44:04;230388.00;;;222.90
12234;BMP180;6179;51.748;8.728;2023-09-07T20:50:05;230388.00;;;222.90
12234;BMP180;6179;51.748;8.728;2023-09-07T20:56:06;230388.00;;;222.90
12234;BMP180;6179;51.748;8.728;2023-09-07T21:02:07;230388.00;;;222.90
12234;BMP180;6179;51.748;8.728;2023-09-07T21:08:08;230388.00;;;222.90
12234;BMP180;6179;51.748;8.728;2023-09-07T21:14:10;230388.00;;;222.90
12234;BMP180;6179;51.748;8.728;2023-09-07T21:20:11;230388.00;;;222.90
12234;BMP180;6179;51.748;8.728;2023-09-07T21:26:12;230388.00;;;222.90
12234;BMP180;6179;51.748;8.728;2023-09-07T21:32:13;230388.00;;;222.90
12234;BMP180;6179;51.748;8.728;2023-09-07T21:38:13;230388.00;;;222.90
12234;BMP180;6179;51.748;8.728;2023-09-07T21:44:15;230388.00;;;222.90
12234;BMP180;6179;51.748;8.728;2023-09-07T21:50:16;230388.00;;;222.90
12234;BMP180;6179;51.748;8.728;2023-09-07T21:56:17;230388.00;;;222.90
12234;BMP180;6179;51.748;8.728;2023-09-07T22:02:18;230388.00;;;222.90
12234;BMP180;6179;51.748;8.728;2023-09-07T22:08:19;230388.00;;;222.90
12234;BMP180;6179;51.748;8.728;2023-09-07T22:14:20;230388.00;;;222.90
12234;BMP180;6179;51.748;8.728;2023-09-07T22:20:21;230388.00;;;222.90
12234;BMP180;6179;51.748;8.728;2023-09-07T22:26:22;230388.00;;;222.90
12234;BMP180;6179;51.748;8.728;2023-09-07T22:32:23;230388.00;;;222.90
12234;BMP180;6179;51.748;8.728;2023-09-07T22:38:27;230388.00;;;222.90
12234;BMP180;6179;51.748;8.728;2023-09-07T22:44:27;230388.00;;;222.90
12234;BMP180;6179;51.748;8.728;2023-09-07T22:50:29;230388.00;;;222.90
12234;BMP180;6179;51.748;8.728;2023-09-07T22:56:30;230388.00;;;222.90
12234;BMP180;6179;51.748;8.728;2023-09-07T23:02:32;230388.00;;;222.90
12234;BMP180;6179;51.748;8.728;2023-09-07T23:08:32;230388.00;;;222.90
12234;BMP180;6179;51.748;8.728;2023-09-07T23:14:33;108422.00;;;222.90
12234;BMP180;6179;51.748;8.728;2023-09-07T23:20:34;230388.00;;;222.90
12234;BMP180;6179;51.748;8.728;2023-09-07T23:26:35;230388.00;;;222.90
12234;BMP180;6179;51.748;8.728;2023-09-07T23:32:40;230388.00;;;222.90
12234;BMP180;6179;51.748;8.728;2023-09-07T23:38:41;230388.00;;;222.90
12234;BMP180;6179;51.748;8.728;2023-09-07T23:44:42;230388.00;;;222.90
12234;BMP180;6179;51.748;8.728;2023-09-07T23:50:44;230388.00;;;222.90
12234;BMP180;6179;51.748;8.728;2023-09-07T23:56:45;230388.00;;;222.90
